TimeEST,TemperatureF,Dew PointF,Humidity,Sea Level PressureIn,VisibilityMPH,Wind Direction,Wind SpeedMPH,Gust SpeedMPH,PrecipitationIn,Events,Conditions,WindDirDegrees,DateUTC
12:53 AM,34.0,21.9,61,30.53,10.0,WNW,4.6,-,N/A,,Overcast,290,2012-11-14 05:53:00
1:53 AM,34.0,21.9,61,30.53,10.0,WNW,5.8,-,N/A,,Overcast,300,2012-11-14 06:53:00
2:53 AM,34.0,21.9,61,30.54,10.0,Calm,Calm,-,N/A,,Overcast,0,2012-11-14 07:53:00
3:53 AM,34.0,21.9,61,30.55,10.0,West,3.5,-,N/A,,Overcast,280,2012-11-14 08:53:00
4:53 AM,34.0,21.9,61,30.55,10.0,WSW,3.5,-,N/A,,Overcast,240,2012-11-14 09:53:00
5:53 AM,34.0,25.0,70,30.56,10.0,Calm,Calm,-,N/A,,Overcast,0,2012-11-14 10:53:00
6:53 AM,33.1,28.0,82,30.58,10.0,Calm,Calm,-,N/A,,Overcast,0,2012-11-14 11:53:00
7:53 AM,34.0,26.1,73,30.59,10.0,Calm,Calm,-,N/A,,Overcast,0,2012-11-14 12:53:00
8:53 AM,35.1,25.0,67,30.60,10.0,Calm,Calm,-,N/A,,Overcast,0,2012-11-14 13:53:00
9:53 AM,37.9,24.1,57,30.61,10.0,NE,8.1,-,N/A,,Overcast,50,2012-11-14 14:53:00
10:53 AM,37.9,24.1,57,30.59,10.0,NE,6.9,-,N/A,,Overcast,50,2012-11-14 15:53:00
11:53 AM,39.0,24.1,55,30.57,10.0,ENE,11.5,-,N/A,,Overcast,70,2012-11-14 16:53:00
12:53 PM,39.0,25.0,57,30.56,10.0,NE,9.2,-,N/A,,Overcast,40,2012-11-14 17:53:00
1:53 PM,39.0,24.1,55,30.53,10.0,Variable,5.8,-,N/A,,Overcast,0,2012-11-14 18:53:00
2:53 PM,39.0,24.1,55,30.54,10.0,ENE,6.9,-,N/A,,Overcast,70,2012-11-14 19:53:00
3:53 PM,36.0,24.1,62,30.54,10.0,NNE,3.5,-,N/A,,Partly Cloudy,30,2012-11-14 20:53:00
4:53 PM,34.0,24.1,67,30.53,10.0,Calm,Calm,-,N/A,,Clear,0,2012-11-14 21:53:00
5:53 PM,30.9,23.0,72,30.52,10.0,East,4.6,-,N/A,,Clear,80,2012-11-14 22:53:00
6:53 PM,28.0,23.0,81,30.53,10.0,WNW,3.5,-,N/A,,Clear,300,2012-11-14 23:53:00
7:53 PM,27.0,23.0,85,30.53,10.0,Calm,Calm,-,N/A,,Clear,0,2012-11-15 00:53:00
8:53 PM,27.0,23.0,85,30.52,10.0,Calm,Calm,-,N/A,,Clear,0,2012-11-15 01:53:00
9:53 PM,27.0,23.0,85,30.51,10.0,Calm,Calm,-,N/A,,Clear,0,2012-11-15 02:53:00
10:53 PM,26.1,21.9,84,30.49,10.0,Calm,Calm,-,N/A,,Clear,0,2012-11-15 03:53:00
11:53 PM,24.1,21.0,88,30.50,10.0,Calm,Calm,-,N/A,,Clear,0,2012-11-15 04:53:00